Details From PAPG - Petersburg James A Johnson
To PAJN - Juneau Intl
Flight Number -
Tags Generated
Created
Modified
Stats Distance 107 nm / 199 km
Max Altitude 0 ft / 0 m
Waypoints 2
Social Downloads 1
Likes 0
Share VATSIM

Download

Looking for another format? Having issues loading an existing format? Contact us
Advertisement - Login to hide

Notes

Generated

Route

PAPG PAJN

ID Type Via Altitude Latitude Longitude Leg Dist Tot Dist Heading (true) Name
O PAPG APT - 0 ft / 0 m 56.79894˚ -132.95942˚ - 0 nm - -
O PAJN APT - 0 ft / 0 m 58.35793˚ -134.59756˚ 107 nm 107 nm 331° / 330° -

Altitude Profile

Advertisement - Login to hide

PAPG

Details ICAO PAPG (PSG)
Name PETERSBURG JAMES A JOHNSON
Region USA (Alaska)
Timezone America/Juneau (UTC-9.0)
Stats Elevation 105 ft / 32 m (AMSL)
Location 56.801651° -132.945289°
Runways 1
Magnetic Variation 18.866° E

METAR

PAPG 151556Z 00000KT 10SM OVC020 03/01 A3000 RMK AO2 RAE37 SLP165 P0002 T00280011 $

Decode

TAF

PAPG 151148Z 1512/1612 16006KT P6SM -SHRA SCT016 BKN027 OVC035 TEMPO 1512/1516 18010G20KT BKN016 OVC025 FM151600 22005KT P6SM VCSH SCT015 OVC035 FM160000 20003KT 6SM -SHRA BR OVC025 FM160500 VRB03KT 4SM BR VCSH OVC020 AMD LTD TO CLD VIS AND WIND 1512/1515

Decode

Departure Runways

ID Width Length Bearing (true) Bearing (mag) Surface Threshold Offset Overrun Length
04 150 ft / 46 m 5,982 ft / 1,823 m 70.70° 51.83° Asphalt 0 ft / 0 m 0 ft / 0 m
22 150 ft / 46 m 5,982 ft / 1,823 m 250.73° 231.86° Asphalt 0 ft / 0 m 0 ft / 0 m

PAJN

Details ICAO PAJN (JNU)
Name Juneau Intl
Region USA (Alaska)
Timezone America/Juneau (UTC-9.0)
Stats Elevation 21 ft / 6 m (AMSL)
Location 58.354964° -134.576278°
Runways 1
Magnetic Variation 19.147° E

METAR

PAJN 151553Z 11006KT 7SM -RA FEW019 BKN028 OVC040 03/03 A2993

Decode

TAF

PAJN 151148Z 1512/1612 08007KT P6SM -SHRA FEW011 BKN035 OVC050 FM151900 10009KT P6SM VCSH SCT030 BKN050 OVC070 FM160000 10007KT P6SM OVC070 FM160600 10010KT P6SM VCSH BKN030 OVC050 FM160900 11020G30KT 5SM -RA OVC030

Decode

Destination Runways

ID Width Length Bearing (true) Bearing (mag) Surface Threshold Offset Overrun Length
08 150 ft / 46 m 8,430 ft / 2,570 m 104.87° 85.72° Asphalt 0 ft / 0 m 450 ft / 137 m
26 150 ft / 46 m 8,430 ft / 2,570 m 284.90° 265.75° Asphalt 0 ft / 0 m 225 ft / 69 m

Approach Navaids

Runway Type Ident Frequency Range Bearing (true) Bearing (mag) Slope Elevation
08 Localiser IJDL 109.90 MHz 18 nm / 33 km 84.92° 65.77° - 21 ft / 6 m (AMSL)
08 DME IJDL 109.90 MHz 18 nm / 33 km - - - 175 ft / 53 m (AMSL)

Popular Alternatives